Time;durP1;ratioP1;P1;durP2;ratioP2;P2;SDS_P1;SDS_P2;PMS_P1;PMS_P2;Temp;Humidity;BMP_temperature;BMP_pressure;BME280_temperature;BME280_humidity;BME280_pressure;Samples;Min_cycle;Max_cycle;Signal;HPM_P1;HPM_P2
2022/07/29 00:01:20;;;;;;;1.88;1.10;;;19.80;53.50;22.00;93860.00;;;;10486177;28;45235;-61
2022/07/29 00:06:42;;;;;;;1.58;1.13;;;19.80;54.70;22.00;93853.00;;;;10471364;28;45262;-61
2022/07/29 00:12:03;;;;;;;1.48;1.10;;;19.80;54.60;21.90;93855.00;;;;10471634;28;45198;-61
2022/07/29 00:17:25;;;;;;;1.63;1.25;;;19.80;54.40;21.90;93852.00;;;;10471980;28;45672;-61
2022/07/29 00:22:47;;;;;;;1.88;1.38;;;19.80;54.80;21.90;93838.00;;;;10471527;28;45160;-61
2022/07/29 00:28:07;;;;;;;1.20;1.10;;;19.70;55.00;21.90;93835.00;;;;10470538;28;45090;-61
2022/07/29 00:33:29;;;;;;;3.17;1.67;;;19.80;55.10;21.90;93848.00;;;;10471823;28;45187;-61
2022/07/29 00:38:52;;;;;;;2.13;1.20;;;19.80;55.10;21.90;93842.00;;;;10477964;28;45343;-61
2022/07/29 00:44:13;;;;;;;1.50;1.13;;;19.70;55.00;21.90;93820.00;;;;10461859;28;45449;-61
2022/07/29 00:49:35;;;;;;;2.58;1.40;;;19.80;54.50;21.90;93838.00;;;;10470863;28;45275;-61
2022/07/29 00:54:57;;;;;;;2.67;1.50;;;19.80;55.00;21.90;93831.00;;;;10470245;28;45192;-61
2022/07/29 01:00:21;;;;;;;1.65;1.20;;;19.70;55.10;21.90;93833.00;;;;10466606;28;45197;-61
2022/07/29 01:05:44;;;;;;;1.42;1.00;;;19.70;55.30;21.90;93836.00;;;;10465537;28;45248;-61
2022/07/29 01:11:06;;;;;;;1.70;1.20;;;19.70;55.20;21.90;93836.00;;;;10469861;28;45297;-61
2022/07/29 01:16:32;;;;;;;1.67;1.17;;;19.70;55.40;21.90;93816.00;;;;10469679;28;45140;-61
2022/07/29 01:21:58;;;;;;;2.67;1.23;;;19.70;55.60;21.90;93833.00;;;;10470109;28;45205;-61
2022/07/29 01:27:46;;;;;;;2.37;1.30;;;19.70;55.70;21.90;93838.00;;;;10468725;28;45291;-61
2022/07/29 01:33:48;;;;;;;1.88;1.38;;;19.70;55.90;21.90;93821.00;;;;10469508;28;45140;-61
2022/07/29 01:39:00;;;;;;;1.88;1.40;;;19.70;55.90;21.80;93821.00;;;;10476345;28;45286;-61
2022/07/29 01:44:28;;;;;;;1.92;1.20;;;19.70;56.00;21.90;93824.00;;;;10461089;28;45305;-61
2022/07/29 01:49:54;;;;;;;2.25;1.35;;;19.70;56.30;21.80;93816.00;;;;10469074;28;45334;-61
2022/07/29 01:55:17;;;;;;;2.22;1.23;;;19.70;56.00;21.90;93820.00;;;;10468164;28;45228;-61
2022/07/29 02:00:39;;;;;;;2.13;1.60;;;19.70;56.40;21.80;93833.00;;;;10469105;28;45148;-62
2022/07/29 02:06:04;;;;;;;1.70;1.40;;;19.70;56.40;21.80;93847.00;;;;10467859;28;45470;-61
2022/07/29 02:11:24;;;;;;;1.58;1.15;;;19.70;57.10;21.90;93842.00;;;;10473696;28;45229;-61
2022/07/29 02:16:48;;;;;;;2.03;1.30;;;19.60;57.80;21.90;93832.00;;;;10475889;28;45224;-60
2022/07/29 02:22:11;;;;;;;2.17;1.30;;;19.70;56.90;21.90;93825.00;;;;10475717;28;45551;-61
2022/07/29 02:27:34;;;;;;;1.65;1.35;;;19.70;57.30;21.90;93818.00;;;;10475095;28;45144;-61
2022/07/29 02:32:56;;;;;;;2.33;1.40;;;19.70;57.80;21.80;93817.00;;;;10475129;28;45180;-61
2022/07/29 02:44:09;;;;;;;1.65;1.33;;;19.70;58.90;21.80;93800.00;;;;10474443;28;45705;-61
2022/07/29 02:49:38;;;;;;;1.70;1.20;;;19.70;58.50;21.90;93793.00;;;;10474918;28;45261;-61
2022/07/29 02:55:08;;;;;;;1.77;1.40;;;19.70;59.00;21.90;93795.00;;;;10474018;28;45066;-61
2022/07/29 03:00:32;;;;;;;2.38;1.60;;;19.70;59.20;21.80;93794.00;;;;10474198;28;45166;-61
2022/07/29 03:05:55;;;;;;;2.60;1.77;;;19.70;59.30;21.80;93791.00;;;;10472686;28;45231;-61
2022/07/29 03:11:18;;;;;;;1.63;1.35;;;19.70;59.30;21.80;93796.00;;;;10473769;28;45183;-61
2022/07/29 03:16:40;;;;;;;2.42;1.67;;;19.70;59.60;21.80;93791.00;;;;10474362;28;45211;-61
2022/07/29 03:22:01;;;;;;;1.83;1.30;;;19.70;59.70;21.80;93799.00;;;;10471912;28;45196;-61
2022/07/29 03:27:23;;;;;;;1.73;1.40;;;19.70;59.50;21.80;93783.00;;;;10468753;28;45509;-61
2022/07/29 03:32:44;;;;;;;2.58;1.50;;;19.70;59.50;21.80;93787.00;;;;10470225;28;45263;-61
2022/07/29 03:38:04;;;;;;;2.20;1.50;;;19.70;59.70;21.80;93786.00;;;;10474370;28;45533;-61
2022/07/29 03:43:31;;;;;;;3.03;1.85;;;19.70;59.90;21.80;93796.00;;;;10484936;28;45236;-61
2022/07/29 03:48:59;;;;;;;2.58;1.67;;;19.70;59.80;21.80;93797.00;;;;10473295;28;45142;-61
2022/07/29 03:54:20;;;;;;;2.75;1.65;;;19.70;59.90;21.80;93806.00;;;;10472965;28;45301;-61
2022/07/29 03:59:43;;;;;;;2.75;1.40;;;19.70;59.80;21.80;93805.00;;;;10471927;28;45347;-61
2022/07/29 04:05:04;;;;;;;1.95;1.20;;;19.70;59.70;21.80;93794.00;;;;10460324;28;45201;-61
2022/07/29 04:10:25;;;;;;;1.90;1.38;;;19.70;59.70;21.80;93813.00;;;;10472003;28;45276;-61
2022/07/29 04:15:47;;;;;;;1.85;1.20;;;19.70;59.80;21.80;93811.00;;;;10471500;28;45188;-61
2022/07/29 04:21:07;;;;;;;2.47;1.30;;;19.70;59.80;21.80;93824.00;;;;10460408;28;45187;-61
2022/07/29 04:26:28;;;;;;;1.40;1.20;;;19.60;59.70;21.80;93820.00;;;;10470769;28;45229;-61
2022/07/29 04:31:50;;;;;;;3.38;1.58;;;19.70;59.80;21.80;93813.00;;;;10471037;28;45260;-61
2022/07/29 04:37:11;;;;;;;2.33;1.55;;;19.70;59.70;21.80;93812.00;;;;10471299;28;45352;-62
2022/07/29 04:42:31;;;;;;;2.97;1.40;;;19.70;59.80;21.70;93805.00;;;;10485117;28;45156;-61
2022/07/29 04:47:53;;;;;;;1.73;1.40;;;19.60;59.80;21.70;93820.00;;;;10470399;28;45192;-60
2022/07/29 04:53:14;;;;;;;2.08;1.45;;;19.70;59.70;21.70;93811.00;;;;10470868;28;45262;-62
2022/07/29 04:58:35;;;;;;;1.70;1.20;;;19.70;59.80;21.70;93818.00;;;;10469773;28;45204;-62
2022/07/29 05:03:57;;;;;;;2.15;1.30;;;19.60;59.60;21.70;93805.00;;;;10469942;28;45206;-62
2022/07/29 05:09:17;;;;;;;1.23;1.13;;;19.60;59.50;21.80;93814.00;;;;10469209;28;45205;-62
2022/07/29 05:14:38;;;;;;;2.10;1.40;;;19.60;59.60;21.70;93818.00;;;;10469778;28;45155;-61
2022/07/29 05:20:00;;;;;;;1.67;1.30;;;19.60;59.80;21.70;93825.00;;;;10483228;28;45188;-62
2022/07/29 05:25:21;;;;;;;1.85;1.45;;;19.60;59.90;21.70;93820.00;;;;10469023;28;45148;-61
2022/07/29 05:30:42;;;;;;;2.30;1.30;;;19.60;60.00;21.70;93811.00;;;;10470241;28;45201;-61
2022/07/29 05:36:06;;;;;;;2.28;1.60;;;19.60;60.00;21.70;93834.00;;;;10468626;28;45152;-61
2022/07/29 05:41:26;;;;;;;2.30;1.63;;;19.60;60.00;21.70;93827.00;;;;10483225;28;45079;-61
2022/07/29 05:46:47;;;;;;;2.67;1.40;;;19.70;60.10;21.70;93824.00;;;;10475189;28;45494;-61
2022/07/29 05:52:09;;;;;;;1.85;1.20;;;19.70;60.30;21.80;93818.00;;;;10476695;28;45271;-62
2022/07/29 05:57:30;;;;;;;2.38;1.50;;;19.60;60.10;21.80;93826.00;;;;10476396;28;45195;-62
2022/07/29 06:02:51;;;;;;;1.45;1.30;;;19.60;59.70;21.80;93837.00;;;;10476190;28;45323;-62
2022/07/29 06:08:12;;;;;;;3.00;1.70;;;19.60;60.40;21.80;93849.00;;;;10474459;28;45101;-62
2022/07/29 06:13:33;;;;;;;1.92;1.38;;;19.60;60.60;21.80;93853.00;;;;10475272;28;45116;-61
2022/07/29 06:18:53;;;;;;;2.20;1.33;;;19.60;60.50;21.80;93853.00;;;;10474659;28;45153;-62
2022/07/29 06:24:16;;;;;;;2.08;1.45;;;19.60;60.50;21.80;93858.00;;;;10474978;28;45307;-62
2022/07/29 06:29:37;;;;;;;2.90;1.48;;;19.60;60.40;21.80;93848.00;;;;10475991;28;45141;-61
2022/07/29 06:34:58;;;;;;;2.42;1.58;;;19.60;59.90;21.80;93845.00;;;;10474539;28;45212;-61
2022/07/29 06:46:01;;;;;;;2.60;1.58;;;19.70;60.00;21.80;93881.00;;;;10465867;28;45216;-62
2022/07/29 06:51:22;;;;;;;1.45;1.20;;;19.60;59.80;21.80;93897.00;;;;10473221;28;45533;-61
2022/07/29 06:56:45;;;;;;;1.20;1.10;;;19.60;59.60;21.80;93901.00;;;;10473650;28;45299;-62
2022/07/29 07:02:06;;;;;;;1.42;1.30;;;19.60;59.50;21.80;93886.00;;;;10475387;28;45221;-62
2022/07/29 07:07:26;;;;;;;2.42;1.50;;;19.70;59.20;21.90;93898.00;;;;10472516;28;45212;-60
2022/07/29 07:12:48;;;;;;;1.52;1.30;;;19.70;59.00;21.90;93900.00;;;;10473680;28;45240;-61
2022/07/29 07:18:08;;;;;;;2.50;1.15;;;19.70;59.00;21.90;93907.00;;;;10474005;28;45265;-62
2022/07/29 07:23:29;;;;;;;2.72;1.40;;;19.70;59.00;21.90;93902.00;;;;10473345;28;45187;-62
2022/07/29 07:28:51;;;;;;;1.58;1.23;;;19.70;58.90;21.90;93906.00;;;;10475169;28;45505;-61
2022/07/29 07:34:11;;;;;;;1.83;1.40;;;19.70;58.70;22.00;93926.00;;;;10473552;28;45249;-62
2022/07/29 07:39:32;;;;;;;1.10;1.00;;;19.80;58.70;22.00;93921.00;;;;10482186;28;45201;-62
2022/07/29 07:44:54;;;;;;;1.95;1.30;;;19.80;58.70;22.00;93910.00;;;;10473025;28;45172;-62
2022/07/29 07:50:14;;;;;;;1.70;1.27;;;19.80;58.70;22.00;93938.00;;;;10472898;28;45206;-61
2022/07/29 07:55:41;;;;;;;1.52;1.10;;;19.80;58.80;22.00;93940.00;;;;10471918;28;45294;-62
2022/07/29 08:01:03;;;;;;;1.80;1.10;;;19.80;58.90;22.00;93929.00;;;;10472460;28;45180;-62
2022/07/29 08:06:24;;;;;;;1.92;1.20;;;19.80;58.70;22.00;93919.00;;;;10470258;28;45280;-62
2022/07/29 08:11:45;;;;;;;1.38;1.10;;;19.80;58.80;22.00;93909.00;;;;10472171;28;45209;-62
2022/07/29 08:17:07;;;;;;;2.28;1.27;;;19.80;58.90;22.00;93915.00;;;;10472138;28;45196;-62
2022/07/29 08:22:28;;;;;;;1.92;1.25;;;19.90;58.80;22.00;93937.00;;;;10471709;28;45258;-62
2022/07/29 08:27:48;;;;;;;1.80;1.10;;;19.90;58.70;22.00;93933.00;;;;10470861;28;45249;-61
2022/07/29 08:33:10;;;;;;;1.27;1.00;;;19.80;58.80;22.00;93941.00;;;;10472448;28;45273;-62
2022/07/29 08:38:30;;;;;;;1.88;1.40;;;19.90;58.90;22.00;93941.00;;;;10475814;28;45220;-61
2022/07/29 08:43:52;;;;;;;1.85;1.30;;;19.80;58.70;22.00;93927.00;;;;10478385;28;45175;-62
2022/07/29 08:49:14;;;;;;;1.33;1.13;;;19.80;58.30;22.00;93933.00;;;;10471626;28;45138;-62
2022/07/29 08:54:34;;;;;;;1.33;1.10;;;19.80;58.20;22.00;93940.00;;;;10471208;28;45275;-62
2022/07/29 08:59:55;;;;;;;1.30;1.15;;;19.80;58.10;22.00;93928.00;;;;10470741;28;45171;-62
2022/07/29 09:05:17;;;;;;;1.55;1.00;;;19.80;58.10;22.00;93932.00;;;;10468738;28;45213;-61
2022/07/29 09:10:38;;;;;;;2.67;1.00;;;19.80;57.90;21.90;93922.00;;;;10470014;28;45198;-61
2022/07/29 09:15:58;;;;;;;1.67;1.20;;;19.80;57.70;21.90;93943.00;;;;10469681;28;45228;-61
2022/07/29 09:26:59;;;;;;;1.58;1.15;;;19.80;57.60;21.90;93924.00;;;;10469281;28;45178;-62
2022/07/29 09:32:20;;;;;;;1.67;1.17;;;19.70;57.50;22.00;93937.00;;;;10466093;28;45253;-63
2022/07/29 09:37:42;;;;;;;1.30;0.98;;;19.80;57.40;22.00;93929.00;;;;10468543;28;45188;-63
2022/07/29 09:43:11;;;;;;;2.10;0.90;;;19.80;57.10;22.00;93922.00;;;;10472196;28;45273;-63
2022/07/29 09:48:32;;;;;;;2.47;1.00;;;19.90;57.10;22.00;93921.00;;;;10469270;28;45193;-64
2022/07/29 09:53:54;;;;;;;0.93;0.77;;;19.90;57.90;22.10;93927.00;;;;10468857;28;45320;-65
2022/07/29 09:59:14;;;;;;;1.92;0.90;;;19.90;57.20;22.10;93906.00;;;;10470198;28;45260;-62
2022/07/29 10:04:40;;;;;;;2.00;1.00;;;19.90;57.10;22.10;93909.00;;;;10468112;28;45216;-62
2022/07/29 10:10:02;;;;;;;1.05;0.90;;;20.00;57.20;22.10;93913.00;;;;10467699;28;45329;-69
2022/07/29 10:15:25;;;;;;;1.75;0.93;;;20.00;57.00;22.10;93898.00;;;;10467935;28;45160;-65
2022/07/29 10:20:45;;;;;;;1.92;1.20;;;20.00;56.90;22.10;93881.00;;;;10468158;28;45316;-63
2022/07/29 10:26:07;;;;;;;1.60;1.02;;;20.00;56.90;22.20;93899.00;;;;10468794;28;45527;-62
2022/07/29 10:31:39;;;;;;;1.20;0.90;;;20.00;56.80;22.20;93890.00;;;;10472227;28;45136;-63
2022/07/29 10:37:14;;;;;;;2.00;0.90;;;20.00;56.70;22.20;93913.00;;;;10476192;28;45172;-63
2022/07/29 10:42:42;;;;;;;2.40;0.90;;;20.00;56.60;22.20;93919.00;;;;10486019;28;45275;-62
2022/07/29 10:48:06;;;;;;;1.40;0.80;;;20.00;56.60;22.20;93902.00;;;;10474780;28;45169;-62
2022/07/29 10:53:47;;;;;;;1.52;0.80;;;20.00;56.60;22.20;93902.00;;;;10462147;28;45435;-65
2022/07/29 10:59:26;;;;;;;1.83;1.25;;;20.00;56.40;22.20;93907.00;;;;10474077;28;45292;-64
2022/07/29 11:05:12;;;;;;;1.10;0.85;;;20.00;56.40;22.20;93912.00;;;;10472419;28;45207;-64
2022/07/29 11:10:32;;;;;;;1.05;0.70;;;20.10;56.20;22.20;93919.00;;;;10465292;28;45380;-63
2022/07/29 11:15:56;;;;;;;1.13;0.90;;;20.00;56.20;22.10;93921.00;;;;10473392;28;45224;-64
2022/07/29 11:21:38;;;;;;;0.70;0.70;;;20.00;56.20;22.10;93905.00;;;;10474129;28;45445;-64
2022/07/29 11:27:17;;;;;;;2.30;0.90;;;20.00;56.10;22.10;93927.00;;;;10473299;28;45270;-63
2022/07/29 11:32:41;;;;;;;1.15;0.77;;;20.00;56.00;22.10;93923.00;;;;10473473;28;45260;-64
2022/07/29 11:38:26;;;;;;;1.95;0.90;;;20.00;55.80;22.30;93911.00;;;;10474015;28;45437;-66
2022/07/29 11:43:52;;;;;;;1.10;0.80;;;20.00;55.80;22.20;93938.00;;;;10478466;28;45222;-67
2022/07/29 11:49:20;;;;;;;1.15;0.63;;;20.10;55.00;22.20;93930.00;;;;10472987;28;45229;-67
2022/07/29 11:54:43;;;;;;;0.88;0.80;;;20.00;56.10;22.20;93947.00;;;;10472759;28;45158;-66
2022/07/29 12:00:08;;;;;;;0.95;0.65;;;20.00;55.20;22.20;93948.00;;;;10472595;28;45211;-67
2022/07/29 12:05:40;;;;;;;1.20;0.80;;;20.00;55.00;22.10;93942.00;;;;10488174;28;45275;-66
2022/07/29 12:11:02;;;;;;;0.80;0.70;;;19.90;55.10;22.10;93931.00;;;;10468980;28;45617;-67
2022/07/29 12:16:23;;;;;;;1.23;0.80;;;20.00;55.20;22.10;93943.00;;;;10471057;28;46160;-66
2022/07/29 12:21:50;;;;;;;1.42;0.77;;;19.90;55.10;22.10;93968.00;;;;10466207;28;45178;-67
2022/07/29 12:27:10;;;;;;;;;;;20.00;55.30;22.10;93955.00;;;;10472647;28;45179;-67
2022/07/29 12:32:34;;;;;;;1.30;0.80;;;19.90;55.20;22.10;93961.00;;;;10460129;28;45216;-66
2022/07/29 12:37:57;;;;;;;0.95;0.85;;;19.90;55.20;22.10;93964.00;;;;10470514;28;45707;-66
2022/07/29 12:43:20;;;;;;;1.45;0.80;;;19.90;55.00;22.10;93951.00;;;;10476564;28;45244;-66
2022/07/29 12:48:42;;;;;;;2.00;0.90;;;19.90;55.30;22.10;93951.00;;;;10471614;28;46669;-66
2022/07/29 12:54:07;;;;;;;1.00;0.80;;;19.90;55.30;22.10;93955.00;;;;10470030;28;45177;-66
2022/07/29 12:59:28;;;;;;;1.30;0.80;;;19.90;55.20;22.10;93960.00;;;;10470448;28;45183;-66
2022/07/29 13:04:57;;;;;;;1.33;0.73;;;19.90;55.10;22.10;93942.00;;;;10467289;28;45454;-66
2022/07/29 13:10:21;;;;;;;2.10;0.85;;;19.90;55.10;22.00;93935.00;;;;10468527;28;45209;-67
2022/07/29 13:15:44;;;;;;;2.22;0.98;;;19.90;55.00;22.00;93949.00;;;;10469825;28;45193;-66
2022/07/29 13:21:12;;;;;;;0.90;0.80;;;19.90;55.10;22.00;93963.00;;;;10458143;28;45324;-66
2022/07/29 13:26:36;;;;;;;1.08;0.88;;;19.80;55.00;22.00;93943.00;;;;10469537;28;45413;-66
2022/07/29 13:31:57;;;;;;;1.75;0.90;;;19.90;55.10;22.10;93961.00;;;;10470241;28;45154;-68
2022/07/29 13:37:19;;;;;;;0.80;0.70;;;19.90;55.00;22.00;93951.00;;;;10460450;28;45141;-68
2022/07/29 13:42:41;;;;;;;1.23;0.90;;;19.90;55.10;22.00;93962.00;;;;10483874;28;45113;-68
2022/07/29 13:48:02;;;;;;;1.38;0.77;;;19.90;55.10;22.00;93986.00;;;;10469303;28;45211;-67
2022/07/29 13:53:23;;;;;;;0.90;0.80;;;19.90;55.10;22.00;93969.00;;;;10469262;28;45140;-67
2022/07/29 13:58:45;;;;;;;1.00;0.90;;;19.90;55.10;22.00;93982.00;;;;10468763;28;45147;-67
2022/07/29 14:04:06;;;;;;;2.08;0.80;;;19.80;55.10;22.00;93968.00;;;;10469175;28;45198;-67
2022/07/29 14:09:26;;;;;;;2.05;0.88;;;19.80;55.10;22.00;93978.00;;;;10476225;28;45538;-67
2022/07/29 14:14:48;;;;;;;1.20;0.80;;;19.80;55.10;22.00;93985.00;;;;10477004;28;45181;-67
2022/07/29 14:20:10;;;;;;;0.73;0.60;;;19.80;55.10;22.00;93994.00;;;;10475768;28;45326;-68
2022/07/29 14:25:31;;;;;;;1.25;0.65;;;19.80;55.10;22.00;93978.00;;;;10473823;28;45261;-67
2022/07/29 14:30:53;;;;;;;1.00;0.90;;;19.80;55.10;22.00;93985.00;;;;10476209;28;45202;-67
2022/07/29 14:36:13;;;;;;;0.90;0.70;;;19.80;55.10;22.00;93999.00;;;;10474969;28;45194;-67
2022/07/29 14:41:34;;;;;;;0.80;0.65;;;19.80;55.10;22.00;93998.00;;;;10488112;28;45160;-67
2022/07/29 14:46:56;;;;;;;1.63;0.75;;;19.80;55.10;22.00;94006.00;;;;10475105;28;45195;-68
2022/07/29 14:52:17;;;;;;;1.10;0.82;;;19.80;55.10;22.00;94021.00;;;;10476070;28;45337;-67
2022/07/29 14:57:37;;;;;;;1.27;0.77;;;19.80;55.10;22.00;94024.00;;;;10474152;28;45171;-67
2022/07/29 15:02:59;;;;;;;1.55;0.77;;;19.80;55.10;22.00;94025.00;;;;10474487;28;45176;-67
2022/07/29 15:08:20;;;;;;;1.30;0.80;;;19.80;55.10;21.90;94034.00;;;;10474466;28;45270;-67
2022/07/29 15:13:40;;;;;;;3.05;0.80;;;19.80;55.10;21.90;94040.00;;;;10474049;28;45235;-67
2022/07/29 15:19:02;;;;;;;0.90;0.57;;;19.80;55.10;21.90;94019.00;;;;10487476;28;45247;-67
2022/07/29 15:24:22;;;;;;;1.55;0.80;;;19.80;55.10;22.00;94034.00;;;;10473904;28;45206;-68
2022/07/29 15:29:44;;;;;;;0.63;0.63;;;19.80;55.10;22.00;94031.00;;;;10474311;28;45238;-67
2022/07/29 15:35:07;;;;;;;0.55;0.55;;;19.80;55.00;21.90;94033.00;;;;10473585;28;45239;-67
2022/07/29 15:40:28;;;;;;;0.70;0.70;;;19.80;55.10;21.90;94024.00;;;;10484916;28;45385;-68
2022/07/29 15:51:24;;;;;;;1.30;0.70;;;19.80;55.10;22.00;94035.00;;;;10472347;28;45204;-67
2022/07/29 15:56:45;;;;;;;0.98;0.70;;;19.80;55.00;21.90;94028.00;;;;10472383;28;45163;-67
2022/07/29 16:02:06;;;;;;;0.95;0.60;;;19.80;55.00;21.90;94028.00;;;;10473672;28;45514;-68
2022/07/29 16:07:28;;;;;;;0.95;0.50;;;19.70;55.10;21.90;94018.00;;;;10479204;28;45708;-67
2022/07/29 16:12:48;;;;;;;0.57;0.52;;;19.70;55.70;21.90;94011.00;;;;10479782;28;45232;-68
2022/07/29 16:18:09;;;;;;;1.80;0.70;;;19.80;55.10;21.90;94015.00;;;;10473190;28;45337;-67
2022/07/29 16:23:31;;;;;;;0.68;0.65;;;19.70;55.10;21.90;93998.00;;;;10479037;28;45263;-66
2022/07/29 16:28:52;;;;;;;2.25;0.75;;;19.70;55.10;21.90;93996.00;;;;10478585;28;45427;-67
2022/07/29 16:34:12;;;;;;;1.08;0.75;;;19.80;55.10;22.00;94009.00;;;;10466301;28;45212;-67
2022/07/29 16:39:34;;;;;;;1.02;0.70;;;19.80;55.00;22.00;94009.00;;;;10487349;28;45153;-66
2022/07/29 16:44:54;;;;;;;0.80;0.63;;;19.90;54.80;22.00;93997.00;;;;10474131;28;45251;-68
2022/07/29 16:50:15;;;;;;;1.08;0.60;;;19.90;54.80;22.10;94012.00;;;;10469724;28;45236;-67
2022/07/29 16:55:38;;;;;;;0.60;0.60;;;19.90;54.70;22.10;94017.00;;;;10466327;28;45201;-67
2022/07/29 17:00:58;;;;;;;1.08;0.98;;;19.90;54.50;22.10;94002.00;;;;10468198;28;45262;-68
2022/07/29 17:06:19;;;;;;;0.80;0.63;;;19.90;54.50;22.10;94014.00;;;;10470725;28;45130;-68
2022/07/29 17:11:41;;;;;;;0.73;0.68;;;19.90;54.20;22.10;94013.00;;;;10470884;28;45267;-67
2022/07/29 17:17:02;;;;;;;0.82;0.70;;;20.00;54.10;22.10;94015.00;;;;10482558;28;45181;-68
2022/07/29 17:22:23;;;;;;;0.90;0.68;;;20.00;53.90;22.20;94010.00;;;;10471545;28;45148;-67
2022/07/29 17:27:45;;;;;;;0.75;0.60;;;20.00;53.80;22.20;94024.00;;;;10462869;28;45711;-69
2022/07/29 17:33:06;;;;;;;1.00;0.60;;;20.00;53.80;22.20;94016.00;;;;10466859;28;45252;-68
2022/07/29 17:38:27;;;;;;;1.27;0.60;;;20.00;53.90;22.10;94027.00;;;;10463349;28;45468;-67
2022/07/29 17:43:49;;;;;;;0.75;0.65;;;20.00;54.00;22.10;94031.00;;;;10468144;28;45299;-67
2022/07/29 17:49:09;;;;;;;0.73;0.60;;;20.00;54.80;22.10;94016.00;;;;10470435;28;45299;-67
2022/07/29 17:54:30;;;;;;;0.50;0.50;;;20.00;54.20;22.10;94018.00;;;;10470206;28;45223;-67
2022/07/29 17:59:52;;;;;;;0.85;0.75;;;20.00;54.20;22.10;94023.00;;;;10470473;28;45274;-67
2022/07/29 18:05:12;;;;;;;0.80;0.68;;;19.90;54.30;22.10;94036.00;;;;10470652;28;45258;-67
2022/07/29 18:10:33;;;;;;;0.68;0.65;;;20.00;54.40;22.10;94023.00;;;;10470007;28;45168;-67
2022/07/29 18:15:55;;;;;;;1.27;0.70;;;19.90;54.70;22.00;94037.00;;;;10469813;28;45143;-67
2022/07/29 18:21:16;;;;;;;0.73;0.50;;;19.90;54.50;22.00;94046.00;;;;10471113;28;45156;-67
2022/07/29 18:26:37;;;;;;;0.77;0.70;;;19.90;54.60;22.00;94053.00;;;;10470396;28;45166;-67
2022/07/29 18:32:00;;;;;;;1.05;0.60;;;19.90;54.70;22.00;94049.00;;;;10469484;28;45234;-67
2022/07/29 18:37:20;;;;;;;0.73;0.63;;;19.80;54.70;22.00;94057.00;;;;10465382;28;45553;-66
2022/07/29 18:42:41;;;;;;;1.25;0.60;;;19.80;54.80;22.00;94064.00;;;;10468817;28;45251;-66
2022/07/29 18:48:03;;;;;;;0.68;0.52;;;19.80;54.80;22.00;94071.00;;;;10468845;28;45254;-66
2022/07/29 18:53:24;;;;;;;0.65;0.65;;;19.80;54.80;22.00;94072.00;;;;10475084;28;45144;-66
2022/07/29 18:58:44;;;;;;;0.95;0.60;;;19.80;54.90;22.00;94066.00;;;;10476293;28;45158;-66
2022/07/29 19:04:07;;;;;;;0.52;0.52;;;19.80;55.00;22.00;94080.00;;;;10471263;28;45165;-67
2022/07/29 19:09:27;;;;;;;0.70;0.70;;;19.80;55.00;22.00;94088.00;;;;10473730;28;45208;-67
2022/07/29 19:14:47;;;;;;;1.05;0.63;;;19.80;55.10;21.90;94091.00;;;;10475337;28;45211;-67
2022/07/29 19:20:11;;;;;;;0.40;0.40;;;19.80;55.10;21.90;94077.00;;;;10490103;28;45292;-66
2022/07/29 19:25:31;;;;;;;1.00;0.70;;;19.80;55.10;21.90;94097.00;;;;10476182;28;45275;-67
2022/07/29 19:30:52;;;;;;;1.00;0.50;;;19.80;55.20;21.90;94103.00;;;;10477586;28;45214;-66
2022/07/29 19:36:14;;;;;;;0.80;0.50;;;19.80;55.20;21.90;94102.00;;;;10473234;28;45198;-66
2022/07/29 19:41:35;;;;;;;0.95;0.60;;;19.80;55.30;21.90;94116.00;;;;10473888;28;45204;-66
2022/07/29 19:46:55;;;;;;;0.85;0.70;;;19.70;55.30;21.90;94121.00;;;;10472254;28;45170;-66
2022/07/29 19:52:17;;;;;;;0.85;0.60;;;19.70;55.40;21.90;94126.00;;;;10472910;28;45358;-67
2022/07/29 19:57:38;;;;;;;0.60;0.60;;;19.70;55.40;21.90;94121.00;;;;10471433;28;45188;-67
2022/07/29 20:02:59;;;;;;;0.75;0.73;;;19.70;55.40;21.90;94126.00;;;;10471165;28;45187;-67
2022/07/29 20:08:21;;;;;;;0.52;0.52;;;19.70;55.50;21.90;94124.00;;;;10477405;28;45208;-66
2022/07/29 20:13:41;;;;;;;0.70;0.70;;;19.70;55.50;21.90;94117.00;;;;10477974;28;45521;-67
2022/07/29 20:19:02;;;;;;;1.20;0.57;;;19.70;55.60;21.90;94129.00;;;;10492980;28;45158;-66
2022/07/29 20:24:25;;;;;;;1.23;0.80;;;19.70;55.60;21.90;94104.00;;;;10475825;28;45262;-67
2022/07/29 20:29:45;;;;;;;1.10;0.80;;;19.70;55.60;21.90;94133.00;;;;10471314;28;45276;-66
2022/07/29 20:35:08;;;;;;;1.20;0.80;;;19.70;55.60;21.90;94131.00;;;;10477463;28;45363;-67
2022/07/29 20:40:30;;;;;;;1.02;0.85;;;19.70;55.60;21.80;94126.00;;;;10465731;28;45259;-66
2022/07/29 20:45:50;;;;;;;1.25;0.82;;;19.70;55.60;21.90;94127.00;;;;10478267;28;45183;-70
2022/07/29 20:51:11;;;;;;;1.52;0.77;;;19.70;55.60;21.90;94110.00;;;;10478536;28;45475;-66
2022/07/29 20:56:33;;;;;;;1.33;0.80;;;19.70;55.60;21.90;94123.00;;;;10473315;28;45196;-66
2022/07/29 21:01:54;;;;;;;1.17;0.80;;;19.70;55.70;21.80;94116.00;;;;10476243;28;45119;-66
2022/07/29 21:07:15;;;;;;;1.35;0.80;;;19.70;55.80;21.80;94107.00;;;;10477268;28;45187;-66
2022/07/29 21:12:37;;;;;;;1.30;0.80;;;19.60;55.80;21.80;94120.00;;;;10478257;28;45159;-66
2022/07/29 21:18:01;;;;;;;1.88;0.98;;;19.60;55.80;21.80;94119.00;;;;10441785;28;45274;-66
2022/07/29 21:23:22;;;;;;;1.35;0.93;;;19.70;55.90;21.80;94119.00;;;;10489246;28;45430;-66
2022/07/29 21:28:44;;;;;;;0.98;0.80;;;19.70;55.90;21.80;94117.00;;;;10477206;28;45204;-66
2022/07/29 21:34:04;;;;;;;0.93;0.80;;;19.70;55.90;21.80;94119.00;;;;10477245;28;45178;-67
2022/07/29 21:39:26;;;;;;;1.00;0.90;;;19.70;55.90;21.80;94107.00;;;;10476560;28;45572;-66
2022/07/29 21:44:48;;;;;;;1.00;0.82;;;19.50;55.80;21.80;94116.00;;;;10476584;28;45168;-67
2022/07/29 21:50:09;;;;;;;1.30;0.90;;;19.60;55.90;21.80;94113.00;;;;10463985;28;45196;-66
2022/07/29 21:55:30;;;;;;;1.23;0.77;;;19.70;55.90;21.80;94122.00;;;;10476557;28;45195;-66
2022/07/29 22:00:52;;;;;;;1.40;1.00;;;19.70;56.00;21.80;94112.00;;;;10476908;28;45283;-66
2022/07/29 22:06:13;;;;;;;1.33;1.00;;;19.60;56.10;21.80;94110.00;;;;10476150;28;45240;-66
2022/07/29 22:11:35;;;;;;;1.27;0.80;;;19.60;55.90;21.80;94111.00;;;;10475998;28;45190;-66
2022/07/29 22:16:57;;;;;;;1.30;0.90;;;19.60;56.00;21.80;94118.00;;;;10473056;28;45171;-66
2022/07/29 22:22:19;;;;;;;1.60;0.90;;;19.60;56.00;21.80;94107.00;;;;10495393;28;45244;-66
2022/07/29 22:27:41;;;;;;;1.40;0.90;;;19.60;56.00;21.80;94108.00;;;;10451644;28;45225;-66
2022/07/29 22:33:03;;;;;;;1.40;0.90;;;19.60;56.00;21.80;94111.00;;;;10480482;28;45174;-67
2022/07/29 22:38:23;;;;;;;1.20;0.80;;;19.60;56.00;21.80;94124.00;;;;10480642;28;45264;-67
2022/07/29 22:43:44;;;;;;;1.13;0.80;;;19.60;56.00;21.80;94121.00;;;;10479662;28;45164;-66
2022/07/29 22:49:06;;;;;;;2.38;0.85;;;19.60;56.00;21.80;94114.00;;;;10480167;28;45152;-67
2022/07/29 22:54:26;;;;;;;1.02;0.82;;;19.60;56.10;21.80;94109.00;;;;10482350;28;45120;-66
2022/07/29 22:59:47;;;;;;;1.45;0.93;;;19.60;56.00;21.80;94123.00;;;;10481867;28;45126;-66
2022/07/29 23:05:10;;;;;;;1.15;0.82;;;19.60;56.10;21.80;94116.00;;;;10440417;28;45157;-66
2022/07/29 23:10:30;;;;;;;1.10;0.90;;;19.60;56.10;21.70;94120.00;;;;10440271;28;45165;-66
2022/07/29 23:15:51;;;;;;;1.10;0.90;;;19.50;56.10;21.70;94116.00;;;;10452970;28;45246;-66
2022/07/29 23:21:13;;;;;;;1.35;0.90;;;19.60;56.10;21.70;94126.00;;;;10481125;28;45228;-66
2022/07/29 23:26:35;;;;;;;1.42;0.98;;;19.60;56.10;21.70;94130.00;;;;10477674;28;45495;-66
2022/07/29 23:31:56;;;;;;;1.55;0.90;;;19.50;56.10;21.70;94121.00;;;;10477129;28;45190;-67
2022/07/29 23:37:18;;;;;;;1.02;0.93;;;19.60;56.10;21.70;94126.00;;;;10478148;28;45148;-66
2022/07/29 23:42:38;;;;;;;1.00;0.90;;;19.60;56.10;21.70;94115.00;;;;10477927;28;45222;-67
2022/07/29 23:47:59;;;;;;;2.30;1.00;;;19.60;56.10;21.70;94131.00;;;;10477586;28;45212;-66
2022/07/29 23:53:21;;;;;;;1.52;0.90;;;19.50;56.10;21.70;94124.00;;;;10478211;28;45191;-66
2022/07/29 23:58:41;;;;;;;0.82;0.80;;;19.60;56.20;21.70;94125.00;;;;10466476;28;45603;-66
